Time;durP1;ratioP1;P1;durP2;ratioP2;P2;SDS_P1;SDS_P2;PMS_P1;PMS_P2;Temp;Humidity;BMP_temperature;BMP_pressure;BME280_temperature;BME280_humidity;BME280_pressure;Samples;Min_cycle;Max_cycle;Signal;HPM_P1;HPM_P2
2024/02/09 00:00:12;;;;;;;19.98;10.02;;;;;;;-15.72;93.44;100666.72;5034418;28;20063;-69
2024/02/09 00:02:42;;;;;;;22.25;11.35;;;;;;;-15.72;93.77;100656.50;5034228;28;20093;-68
2024/02/09 00:05:15;;;;;;;14.45;9.93;;;;;;;-15.64;93.61;100659.88;5044545;28;20115;-67
2024/02/09 00:07:48;;;;;;;17.05;9.98;;;;;;;-15.71;94.12;100642.88;5042715;28;20076;-68
2024/02/09 00:10:18;;;;;;;16.58;10.68;;;;;;;-15.58;93.16;100652.25;5045255;28;20032;-72
2024/02/09 00:12:55;;;;;;;17.80;11.20;;;;;;;-15.60;92.77;100653.97;5040062;28;20045;-71
2024/02/09 00:15:21;;;;;;;12.20;9.25;;;;;;;-15.63;93.62;100648.81;5045175;28;20177;-70
2024/02/09 00:17:48;;;;;;;29.63;11.67;;;;;;;-15.81;93.51;100620.81;5045288;28;20125;-71
2024/02/09 00:20:14;;;;;;;19.63;10.57;;;;;;;-15.80;93.17;100625.91;5043735;28;20212;-68
2024/02/09 00:22:40;;;;;;;22.40;11.82;;;;;;;-15.80;93.63;100632.72;5047772;28;20041;-70
2024/02/09 00:25:10;;;;;;;22.13;12.90;;;;;;;-15.64;93.28;100669.25;5039892;28;20060;-68
2024/02/09 00:27:37;;;;;;;19.02;10.95;;;;;;;-15.66;93.51;100664.16;5039408;28;20488;-69
2024/02/09 00:30:07;;;;;;;21.85;11.95;;;;;;;-15.66;94.14;100662.44;5040997;28;20045;-68
2024/02/09 00:32:36;;;;;;;16.85;9.82;;;;;;;-15.55;94.24;100669.22;5039505;28;20040;-69
2024/02/09 00:35:03;;;;;;;22.80;11.60;;;;;;;-15.60;94.29;100651.41;5045930;28;20033;-69
2024/02/09 00:37:30;;;;;;;18.05;11.07;;;;;;;-15.56;93.48;100663.28;5044819;28;20036;-69
2024/02/09 00:39:56;;;;;;;20.00;12.07;;;;;;;-15.76;93.70;100629.28;5035087;28;20041;-68
2024/02/09 00:42:23;;;;;;;18.93;10.70;;;;;;;-15.77;94.47;100622.50;5039603;28;20131;-69
2024/02/09 00:44:49;;;;;;;16.55;10.98;;;;;;;-15.62;94.26;100637.75;5040010;28;20029;-69
2024/02/09 00:47:14;;;;;;;22.35;10.30;;;;;;;-15.52;94.42;100643.69;5040482;28;20037;-69
2024/02/09 00:49:44;;;;;;;19.10;10.70;;;;;;;-15.42;94.00;100646.22;5042644;28;20044;-67
2024/02/09 00:52:10;;;;;;;19.75;11.07;;;;;;;-15.40;94.47;100644.50;5042929;28;20037;-68
2024/02/09 00:54:38;;;;;;;17.15;10.68;;;;;;;-15.38;94.18;100657.25;5037759;28;20045;-69
2024/02/09 00:57:05;;;;;;;25.50;10.38;;;;;;;-15.53;94.02;100627.53;5040654;28;20052;-66
2024/02/09 00:59:33;;;;;;;19.88;11.98;;;;;;;-15.66;94.12;100600.34;5034747;28;20037;-69
2024/02/09 01:01:58;;;;;;;13.77;9.05;;;;;;;-15.40;94.20;100646.19;5046002;28;20036;-71
2024/02/09 01:04:27;;;;;;;18.40;11.93;;;;;;;-15.55;94.12;100628.38;5051316;28;20044;-69
2024/02/09 01:06:55;;;;;;;19.23;11.00;;;;;;;-15.48;94.20;100640.28;5043189;28;20033;-68
2024/02/09 01:09:22;;;;;;;21.85;10.73;;;;;;;-15.44;94.37;100657.28;5044987;28;20035;-70
2024/02/09 01:11:48;;;;;;;18.17;10.27;;;;;;;-15.51;94.30;100641.13;5046531;28;20071;-69
2024/02/09 02:44:46;;;;;;;12.63;8.67;;;;;;;-15.84;94.10;100685.44;5046041;28;20478;-70
2024/02/09 02:47:12;;;;;;;15.02;8.68;;;;;;;-15.89;93.32;100676.09;5048186;28;20040;-68
2024/02/09 03:06:05;;;;;;;13.55;8.75;;;;;;;-16.02;93.54;100657.38;5046134;28;20033;-71
2024/02/09 03:08:31;;;;;;;19.70;11.45;;;;;;;-16.06;93.54;100671.81;5040483;28;20045;-69
2024/02/09 03:10:56;;;;;;;16.43;9.27;;;;;;;-16.33;93.44;100642.06;5043676;28;20032;-67
2024/02/09 03:13:22;;;;;;;15.93;10.63;;;;;;;-15.99;93.69;100681.19;5037957;28;20083;-68
2024/02/09 03:15:47;;;;;;;12.53;8.83;;;;;;;-16.07;94.05;100670.13;5044571;28;20086;-70
2024/02/09 03:18:17;;;;;;;14.13;10.47;;;;;;;-15.93;94.40;100682.03;5043046;28;20040;-70
2024/02/09 03:20:45;;;;;;;18.15;10.27;;;;;;;-16.21;93.95;100636.09;5042108;28;20471;-72
2024/02/09 03:23:16;;;;;;;18.65;8.98;;;;;;;-16.13;93.78;100654.81;5035443;28;20421;-72
2024/02/09 03:25:42;;;;;;;13.45;9.73;;;;;;;-16.10;94.11;100677.78;5050636;28;20566;-70
2024/02/09 03:28:08;;;;;;;12.20;9.00;;;;;;;-16.12;94.25;100661.63;5036698;28;20033;-69
2024/02/09 03:30:34;;;;;;;19.58;9.93;;;;;;;-15.93;94.67;100697.31;5043359;28;20044;-70
2024/02/09 03:33:00;;;;;;;19.80;11.13;;;;;;;-16.13;94.02;100665.03;5036888;28;20033;-70
2024/02/09 03:35:25;;;;;;;13.97;8.00;;;;;;;-15.93;94.17;100692.22;5054522;28;20044;-70
2024/02/09 03:37:51;;;;;;;12.57;8.83;;;;;;;-16.11;94.51;100655.69;5048193;28;20033;-69
2024/02/09 03:40:17;;;;;;;14.90;8.27;;;;;;;-15.96;94.24;100677.78;5049628;28;20055;-70
2024/02/09 03:42:44;;;;;;;15.98;9.55;;;;;;;-15.92;94.17;100683.72;5041960;28;20036;-70
2024/02/09 03:45:09;;;;;;;16.20;11.70;;;;;;;-15.96;94.20;100672.66;5041712;28;20040;-70
2024/02/09 03:47:35;;;;;;;18.03;8.47;;;;;;;-15.92;93.94;100687.13;5054339;28;20040;-69
2024/02/09 03:50:01;;;;;;;17.83;9.53;;;;;;;-16.19;94.10;100652.25;5046673;28;20033;-67
2024/02/09 03:52:27;;;;;;;13.32;8.68;;;;;;;-16.43;93.65;100603.81;5043905;28;20040;-72
2024/02/09 03:54:55;;;;;;;13.10;8.05;;;;;;;-16.14;93.74;100648.03;5041462;28;20073;-68
2024/02/09 03:57:22;;;;;;;11.18;8.70;;;;;;;-16.57;93.49;100588.50;5037734;28;20041;-71
2024/02/09 03:59:49;;;;;;;14.32;9.57;;;;;;;-16.04;94.07;100680.31;5035321;28;20080;-70
2024/02/09 04:02:16;;;;;;;14.32;9.18;;;;;;;-15.98;94.07;100680.31;5042742;28;20045;-72
2024/02/09 04:04:42;;;;;;;14.95;8.65;;;;;;;-16.07;94.25;100665.03;5033186;28;20390;-68
2024/02/09 04:07:08;;;;;;;12.43;9.25;;;;;;;-16.23;94.00;100630.16;5040108;28;20043;-67
2024/02/09 04:09:35;;;;;;;14.30;8.03;;;;;;;-16.05;94.27;100663.31;5042280;28;20037;-72
2024/02/09 04:12:02;;;;;;;9.70;8.18;;;;;;;-16.09;93.82;100665.88;5046648;28;20520;-65
2024/02/09 04:14:27;;;;;;;16.40;8.57;;;;;;;-16.19;94.01;100664.16;5053721;28;20036;-72
2024/02/09 04:16:54;;;;;;;11.30;8.10;;;;;;;-16.07;93.60;100682.03;5048568;28;20063;-70
2024/02/09 04:19:22;;;;;;;8.48;7.10;;;;;;;-16.24;93.50;100646.31;5044231;28;20048;-71
2024/02/09 04:21:48;;;;;;;6.45;5.90;;;;;;;-16.11;93.45;100670.13;5046787;28;20056;-67
2024/02/09 04:24:23;;;;;;;10.13;7.03;;;;;;;-16.10;93.46;100667.56;5043211;28;20041;-68
2024/02/09 04:26:59;;;;;;;14.63;7.85;;;;;;;-16.19;92.47;100654.78;5060743;28;20097;-73
2024/02/09 04:29:25;;;;;;;8.73;6.57;;;;;;;-16.46;92.27;100630.16;5045853;28;20041;-67
2024/02/09 04:31:51;;;;;;;16.90;10.48;;;;;;;-16.17;92.13;100678.63;5049860;28;20068;-69
2024/02/09 04:34:17;;;;;;;15.10;7.07;;;;;;;-16.27;92.58;100661.59;5050862;28;20033;-68
2024/02/09 04:36:48;;;;;;;8.27;6.82;;;;;;;-16.12;92.50;100682.03;5051757;28;20370;-67
2024/02/09 04:39:14;;;;;;;8.85;5.82;;;;;;;-16.20;92.46;100660.75;5053591;28;20045;-72
2024/02/09 04:41:45;;;;;;;8.95;7.75;;;;;;;-16.05;92.12;100678.63;5050529;28;20404;-67
2024/02/09 04:44:11;;;;;;;8.82;7.85;;;;;;;-16.12;91.61;100682.03;5049982;28;20551;-71
2024/02/09 04:46:39;;;;;;;16.92;7.72;;;;;;;-16.23;91.32;100677.75;5052380;28;20037;-74
2024/02/09 04:49:06;;;;;;;12.98;8.35;;;;;;;-16.19;92.20;100680.31;5047609;28;20480;-71
2024/02/09 04:51:33;;;;;;;10.32;7.40;;;;;;;-16.39;92.81;100643.75;5040437;28;20090;-70
2024/02/09 04:54:02;;;;;;;14.02;8.35;;;;;;;-16.15;93.11;100679.47;5041629;28;20086;-73
2024/02/09 04:56:34;;;;;;;10.13;6.00;;;;;;;-16.15;93.31;100671.84;5032518;28;20045;-69
2024/02/09 04:59:04;;;;;;;17.35;8.88;;;;;;;-16.12;93.23;100664.19;5038283;28;20037;-70
2024/02/09 05:01:32;;;;;;;14.02;8.02;;;;;;;-16.02;93.24;100676.06;5034344;28;20178;-75
2024/02/09 05:04:00;;;;;;;13.25;7.53;;;;;;;-16.10;92.96;100665.03;5045123;28;20033;-73
2024/02/09 05:06:27;;;;;;;12.20;7.53;;;;;;;-15.94;92.67;100680.31;5039939;28;20174;-74
2024/02/09 05:08:53;;;;;;;11.75;8.20;;;;;;;-16.05;92.41;100668.44;5046255;28;20453;-73
2024/02/09 05:11:22;;;;;;;18.95;9.45;;;;;;;-16.04;91.81;100674.38;5036505;28;20044;-68
2024/02/09 05:13:49;;;;;;;10.25;8.48;;;;;;;-16.21;92.15;100661.59;5046781;28;20038;-70
2024/02/09 05:16:16;;;;;;;13.73;6.97;;;;;;;-16.44;91.47;100653.09;5036764;28;20116;-67
2024/02/09 05:18:43;;;;;;;9.70;7.25;;;;;;;-16.42;91.07;100666.69;5047030;28;20044;-70
2024/02/09 05:21:08;;;;;;;12.27;7.68;;;;;;;-16.39;91.51;100677.75;5039982;28;20048;-67
2024/02/09 05:23:34;;;;;;;10.13;7.13;;;;;;;-16.49;90.79;100670.06;5043904;28;20037;-73
2024/02/09 05:25:59;;;;;;;10.40;7.47;;;;;;;-16.57;90.63;100659.00;5034245;28;20041;-74
2024/02/09 05:28:25;;;;;;;12.07;7.50;;;;;;;-16.47;90.30;100683.69;5043929;28;20048;-74
2024/02/09 05:30:51;;;;;;;14.07;9.17;;;;;;;-16.45;90.55;100690.47;5035680;28;20032;-70
2024/02/09 05:33:17;;;;;;;17.63;8.63;;;;;;;-16.91;89.99;100641.09;5046229;28;20496;-71
2024/02/09 05:35:42;;;;;;;14.17;8.47;;;;;;;-16.57;90.02;100705.72;5050794;28;20037;-69
2024/02/09 05:38:08;;;;;;;11.43;8.07;;;;;;;-16.68;90.07;100695.53;5048393;28;20036;-71
2024/02/09 05:40:34;;;;;;;13.77;8.68;;;;;;;-16.73;88.82;100688.72;5051741;28;20048;-69
2024/02/09 05:43:00;;;;;;;9.50;7.50;;;;;;;-16.95;89.36;100662.31;5048038;28;20033;-70
2024/02/09 05:45:26;;;;;;;10.07;6.63;;;;;;;-17.04;88.83;100659.75;5047641;28;20041;-69
2024/02/09 05:47:52;;;;;;;14.23;8.00;;;;;;;-17.03;88.60;100689.47;5039848;28;20037;-69
2024/02/09 05:50:21;;;;;;;12.00;7.63;;;;;;;-16.87;88.95;100721.78;5047459;28;20033;-68
2024/02/09 05:52:47;;;;;;;10.80;7.15;;;;;;;-16.96;89.34;100703.91;5047947;28;20040;-68
2024/02/09 05:55:15;;;;;;;12.52;7.15;;;;;;;-16.81;88.88;100726.03;5044830;28;20041;-70
2024/02/09 05:57:43;;;;;;;10.70;7.25;;;;;;;-17.03;88.17;100674.19;5038844;28;20517;-68
2024/02/09 06:00:14;;;;;;;11.63;8.18;;;;;;;-16.96;88.33;100694.59;5036210;28;20052;-68
2024/02/09 06:02:41;;;;;;;7.20;6.43;;;;;;;-16.99;88.80;100688.63;5046920;28;20052;-68
2024/02/09 06:05:07;;;;;;;10.35;7.35;;;;;;;-17.05;88.22;100668.22;5043042;28;20497;-67
2024/02/09 06:07:34;;;;;;;12.50;7.80;;;;;;;-17.38;88.10;100615.44;5040812;28;20037;-68
2024/02/09 06:10:00;;;;;;;13.05;7.88;;;;;;;-17.07;88.09;100660.56;5045422;28;20029;-68
2024/02/09 06:12:26;;;;;;;13.45;7.55;;;;;;;-17.06;88.53;100657.16;5041935;28;20075;-71
2024/02/09 06:14:52;;;;;;;22.00;9.50;;;;;;;-16.83;88.76;100692.94;5037422;28;20122;-69
2024/02/09 06:17:19;;;;;;;17.75;8.27;;;;;;;-16.85;88.74;100686.97;5043794;28;20038;-72
2024/02/09 06:19:45;;;;;;;11.68;6.65;;;;;;;-16.75;88.22;100704.00;5048304;28;20085;-73
2024/02/09 06:22:12;;;;;;;13.80;6.53;;;;;;;-16.78;87.94;100701.44;5045205;28;20103;-70
2024/02/09 06:24:39;;;;;;;17.00;7.13;;;;;;;-16.84;88.09;100688.69;5046136;28;20556;-71
2024/02/09 06:27:04;;;;;;;13.40;6.82;;;;;;;-16.82;87.88;100709.91;5036199;28;20029;-68
2024/02/09 06:29:30;;;;;;;9.47;8.40;;;;;;;-16.92;87.63;100708.19;5042175;28;20436;-69
2024/02/09 06:31:57;;;;;;;12.13;7.43;;;;;;;-17.08;88.65;100678.38;5051368;28;20389;-68
2024/02/09 06:34:23;;;;;;;13.23;7.20;;;;;;;-16.96;88.65;100681.00;5042694;28;20044;-68
2024/02/09 06:36:48;;;;;;;8.52;6.93;;;;;;;-16.86;88.70;100698.00;5047990;28;20127;-67
2024/02/09 06:39:15;;;;;;;8.40;6.67;;;;;;;-16.79;88.80;100702.28;5048986;28;20104;-68
2024/02/09 06:41:41;;;;;;;13.50;8.32;;;;;;;-16.79;88.90;100688.69;5053362;28;20041;-69
2024/02/09 06:44:07;;;;;;;9.50;6.95;;;;;;;-16.74;87.75;100713.34;5051128;28;20033;-69
2024/02/09 06:46:33;;;;;;;12.67;7.93;;;;;;;-17.00;88.75;100666.56;5052372;28;20132;-68
2024/02/09 06:49:00;;;;;;;12.03;7.67;;;;;;;-16.76;88.94;100679.38;5051767;28;20037;-67
2024/02/09 06:51:27;;;;;;;10.25;7.00;;;;;;;-16.84;88.91;100657.25;5052319;28;20032;-69
2024/02/09 06:53:55;;;;;;;10.10;7.20;;;;;;;-16.63;88.83;100668.34;5047959;28;20040;-71
2024/02/09 06:56:22;;;;;;;12.85;7.97;;;;;;;-16.56;88.91;100668.34;5051621;28;20025;-71
2024/02/09 06:58:50;;;;;;;8.65;7.00;;;;;;;-16.47;88.99;100673.47;5048206;28;20112;-69
2024/02/09 07:01:18;;;;;;;11.93;7.40;;;;;;;-16.28;88.53;100705.78;5034164;28;20033;-67
2024/02/09 07:03:45;;;;;;;10.73;7.55;;;;;;;-16.29;88.87;100683.69;5053813;28;20110;-68
2024/02/09 07:06:11;;;;;;;10.38;7.68;;;;;;;-16.46;88.88;100654.78;5052016;28;20072;-69
2024/02/09 07:08:39;;;;;;;15.18;7.15;;;;;;;-16.21;89.59;100683.69;5046605;28;20480;-70
2024/02/09 07:11:07;;;;;;;;;;;;;;;-16.09;88.95;100702.44;5046664;28;20037;-69
2024/02/09 07:13:34;;;;;;;12.32;7.30;;;;;;;-16.36;89.12;100653.94;5047726;28;19928;-69
2024/02/09 07:16:02;;;;;;;10.98;7.00;;;;;;;-16.00;89.37;100687.13;5026692;28;20032;-70
2024/02/09 07:18:30;;;;;;;14.38;8.07;;;;;;;-15.71;90.10;100706.69;5051854;28;20041;-68
2024/02/09 07:20:58;;;;;;;13.75;7.90;;;;;;;-15.52;89.11;100700.69;5050791;28;20074;-69
2024/02/09 07:23:26;;;;;;;12.82;7.60;;;;;;;-15.30;89.06;100696.41;5053747;28;20179;-67
2024/02/09 07:25:51;;;;;;;13.80;7.20;;;;;;;-15.27;88.35;100685.34;5051195;28;20049;-67
2024/02/09 07:28:17;;;;;;;21.53;7.50;;;;;;;-14.97;87.46;100699.72;5052111;28;20048;-70
2024/02/09 07:30:45;;;;;;;10.70;8.27;;;;;;;-14.96;87.17;100691.22;5047445;28;20163;-68
2024/02/09 07:33:11;;;;;;;8.35;6.00;;;;;;;-14.88;86.77;100699.69;5050271;28;20174;-69
2024/02/09 07:35:36;;;;;;;11.37;6.93;;;;;;;-15.03;86.06;100682.72;5034514;28;20445;-68
2024/02/09 07:38:02;;;;;;;11.87;6.97;;;;;;;-14.83;85.84;100726.06;5050173;28;20546;-67
2024/02/09 07:40:28;;;;;;;12.18;7.00;;;;;;;-15.06;85.56;100692.94;5051019;28;20412;-73
2024/02/09 07:42:53;;;;;;;8.60;6.40;;;;;;;-14.89;85.18;100721.00;5051334;28;20079;-67
2024/02/09 07:45:20;;;;;;;13.53;7.93;;;;;;;-14.87;84.04;100737.16;5048050;28;20499;-69
2024/02/09 07:47:46;;;;;;;11.63;6.03;;;;;;;-15.01;83.64;100729.56;5047668;28;21068;-68
2024/02/09 07:50:13;;;;;;;9.33;6.63;;;;;;;-15.20;84.63;100717.69;5044405;28;20037;-70
2024/02/09 07:52:38;;;;;;;9.73;6.72;;;;;;;-15.24;85.29;100705.75;5048104;28;20041;-67
2024/02/09 07:55:06;;;;;;;9.03;7.83;;;;;;;-15.77;84.77;100625.88;5048088;28;20094;-67
2024/02/09 07:57:34;;;;;;;15.38;7.57;;;;;;;-15.07;84.69;100737.22;5049422;28;20250;-69
2024/02/09 08:00:00;;;;;;;9.98;6.22;;;;;;;-14.96;84.16;100763.59;5049888;28;20071;-72
2024/02/09 08:02:28;;;;;;;10.27;6.70;;;;;;;-15.31;83.55;100715.16;5051910;28;20500;-68
2024/02/09 08:04:54;;;;;;;15.02;8.90;;;;;;;-15.11;82.90;100763.63;5051893;28;20042;-68
2024/02/09 08:07:20;;;;;;;13.27;9.15;;;;;;;-15.31;83.82;100735.59;5049922;28;20511;-68
2024/02/09 08:09:47;;;;;;;14.57;9.00;;;;;;;-15.14;83.83;100748.31;5044625;28;20136;-67
2024/02/09 08:12:13;;;;;;;9.38;6.57;;;;;;;-15.04;83.72;100776.38;5031342;28;20513;-71
2024/02/09 08:14:39;;;;;;;11.73;7.50;;;;;;;-15.04;83.59;100763.59;5048882;28;20036;-67
2024/02/09 08:17:05;;;;;;;10.85;6.53;;;;;;;-15.08;83.13;100763.63;5045286;28;20052;-72
2024/02/09 08:19:35;;;;;;;21.17;7.25;;;;;;;-15.24;83.13;100721.09;5043493;28;20155;-70
2024/02/09 08:22:01;;;;;;;15.30;7.63;;;;;;;-15.00;82.86;100758.50;5049214;28;20045;-69
2024/02/09 08:24:27;;;;;;;13.68;7.13;;;;;;;-15.18;82.27;100744.06;5049932;28;20036;-71
2024/02/09 08:26:56;;;;;;;15.77;11.23;;;;;;;-15.03;82.24;100777.25;5033958;28;20037;-71
2024/02/09 08:29:21;;;;;;;11.65;6.57;;;;;;;-15.23;81.96;100754.28;5045691;28;20041;-70
2024/02/09 08:31:47;;;;;;;14.43;8.30;;;;;;;-15.29;82.32;100756.84;5043666;28;20047;-70
2024/02/09 08:34:13;;;;;;;9.63;5.97;;;;;;;-15.18;83.20;100761.94;5048197;28;20055;-70
2024/02/09 08:36:38;;;;;;;17.00;7.80;;;;;;;-15.22;83.02;100743.22;5047508;28;20029;-72
2024/02/09 08:39:05;;;;;;;12.53;7.40;;;;;;;-14.88;82.10;100791.69;5047963;28;20044;-69
2024/02/09 08:41:31;;;;;;;12.10;7.50;;;;;;;-15.64;82.31;100659.88;5049156;28;20048;-71
2024/02/09 08:43:57;;;;;;;20.53;8.93;;;;;;;-14.80;82.53;100777.19;5049175;28;20044;-71
2024/02/09 08:46:23;;;;;;;13.97;7.53;;;;;;;-14.85;82.49;100755.91;5048524;28;20047;-69
2024/02/09 08:48:49;;;;;;;10.73;6.97;;;;;;;-14.82;82.25;100746.53;5050167;28;20071;-70
2024/02/09 08:51:14;;;;;;;9.33;8.40;;;;;;;-14.64;82.27;100765.22;5025543;28;20037;-71
2024/02/09 08:53:40;;;;;;;14.13;8.33;;;;;;;-14.62;81.77;100743.91;5049893;28;20040;-73
2024/02/09 08:56:09;;;;;;;14.27;7.07;;;;;;;-14.44;82.53;100766.00;5048718;28;20066;-71
2024/02/09 08:58:36;;;;;;;13.07;7.70;;;;;;;-14.50;82.17;100737.88;5046739;28;20045;-72
2024/02/09 09:01:03;;;;;;;16.55;7.03;;;;;;;-14.30;82.59;100741.16;5045421;28;20100;-70
2024/02/09 09:03:28;;;;;;;12.57;7.70;;;;;;;-14.30;81.35;100725.81;5049798;28;20389;-69
2024/02/09 09:05:54;;;;;;;12.97;8.20;;;;;;;-13.99;81.43;100756.34;5041751;28;20048;-70
2024/02/09 09:08:20;;;;;;;17.27;7.40;;;;;;;-13.98;80.78;100746.09;5043762;28;20123;-70
2024/02/09 09:10:45;;;;;;;8.17;6.53;;;;;;;-14.16;80.88;100711.25;5047022;28;20124;-71
2024/02/09 09:13:11;;;;;;;18.50;8.40;;;;;;;-13.97;81.19;100744.38;5044884;28;20037;-69
2024/02/09 09:15:39;;;;;;;11.95;6.78;;;;;;;-13.78;81.48;100753.66;5047139;28;20061;-72
2024/02/09 09:18:06;;;;;;;10.35;6.82;;;;;;;-13.86;81.45;100733.22;5045745;28;20053;-68
2024/02/09 09:20:35;;;;;;;13.82;7.45;;;;;;;-13.99;81.46;100688.09;5045908;28;20127;-71
2024/02/09 09:23:04;;;;;;;16.42;9.35;;;;;;;-13.45;81.47;100760.22;5052133;28;20064;-72
2024/02/09 09:25:30;;;;;;;19.87;7.57;;;;;;;-13.52;80.53;100754.31;5051897;28;20037;-68
2024/02/09 09:27:57;;;;;;;10.70;8.63;;;;;;;-13.43;80.70;100766.16;5044947;28;20045;-73
2024/02/09 09:30:24;;;;;;;15.30;8.82;;;;;;;-13.36;81.24;100764.41;5046849;28;20052;-68
2024/02/09 09:32:49;;;;;;;15.98;7.82;;;;;;;-13.33;80.30;100766.94;5047768;28;20124;-69
2024/02/09 09:35:16;;;;;;;16.60;8.10;;;;;;;-13.13;80.81;100777.84;5046701;28;20128;-67
2024/02/09 09:37:41;;;;;;;13.23;7.93;;;;;;;-13.26;80.94;100735.28;5049453;28;20033;-72
2024/02/09 09:40:10;;;;;;;13.73;7.13;;;;;;;-12.80;80.79;100780.94;5046365;28;20095;-68
2024/02/09 09:42:42;;;;;;;9.30;6.60;;;;;;;-12.68;79.50;100783.38;5046326;28;20493;-71
2024/02/09 09:45:11;;;;;;;12.82;7.72;;;;;;;-12.53;78.98;100798.59;5046264;28;20041;-68
2024/02/09 09:47:43;;;;;;;15.30;7.13;;;;;;;-12.55;78.05;100784.94;5045677;28;20048;-67
2024/02/09 09:50:11;;;;;;;14.10;8.95;;;;;;;-12.42;78.58;100778.81;5049526;28;20041;-68
2024/02/09 09:52:43;;;;;;;24.23;7.63;;;;;;;-12.19;77.94;100786.19;5048845;28;20041;-70
2024/02/09 09:55:11;;;;;;;12.85;7.13;;;;;;;-12.27;77.09;100788.88;5048213;28;20435;-70
2024/02/09 09:57:38;;;;;;;20.58;7.05;;;;;;;-12.37;77.70;100771.91;5048396;28;20099;-72
2024/02/09 10:00:06;;;;;;;15.23;8.32;;;;;;;-12.42;77.87;100762.56;5044177;28;20389;-71
2024/02/09 10:02:34;;;;;;;13.23;7.80;;;;;;;-12.60;77.72;100730.28;5047764;28;20041;-71
2024/02/09 10:05:00;;;;;;;8.82;6.82;;;;;;;-12.05;77.92;100788.59;5043589;28;20033;-70
2024/02/09 10:07:26;;;;;;;9.50;7.63;;;;;;;-11.78;76.75;100787.38;5043373;28;20091;-70
2024/02/09 10:09:52;;;;;;;10.45;6.47;;;;;;;-11.85;75.98;100753.22;5047401;28;20041;-70
2024/02/09 10:12:22;;;;;;;13.05;7.50;;;;;;;-11.69;75.06;100777.78;5046338;28;20045;-70
2024/02/09 10:14:48;;;;;;;19.52;8.45;;;;;;;-12.05;74.43;100768.06;5044690;28;20041;-68
2024/02/09 10:17:13;;;;;;;17.40;7.90;;;;;;;-12.09;76.05;100802.34;5045773;28;20077;-70
2024/02/09 10:19:39;;;;;;;23.83;8.40;;;;;;;-12.39;76.62;100752.25;5044313;28;20322;-70
2024/02/09 10:22:06;;;;;;;13.32;8.13;;;;;;;-12.33;77.68;100785.53;5042085;28;20041;-68
2024/02/09 10:24:32;;;;;;;10.07;6.97;;;;;;;-12.55;77.50;100751.56;5048327;28;20127;-71
2024/02/09 10:26:58;;;;;;;12.55;7.43;;;;;;;-12.14;79.06;100786.13;5050324;28;20044;-68
2024/02/09 10:29:26;;;;;;;18.58;7.35;;;;;;;-11.94;76.91;100776.44;5047276;28;20520;-72
2024/02/09 10:31:59;;;;;;;12.98;8.90;;;;;;;-11.78;76.77;100787.38;5049180;28;20041;-76
2024/02/09 10:34:27;;;;;;;26.27;8.18;;;;;;;-11.70;77.21;100788.91;5047778;28;20049;-71
2024/02/09 10:36:56;;;;;;;23.43;9.70;;;;;;;-12.02;76.51;100732.91;5046582;28;20079;-72
2024/02/09 10:39:21;;;;;;;19.30;11.60;;;;;;;-12.84;76.61;100611.72;5051548;28;20127;-71
2024/02/09 10:41:51;;;;;;;13.23;7.77;;;;;;;-11.66;77.41;100788.00;5051450;28;20119;-69
2024/02/09 10:44:18;;;;;;;14.43;6.60;;;;;;;-11.63;76.84;100787.94;5034632;28;20409;-70
2024/02/09 10:46:47;;;;;;;12.20;6.43;;;;;;;-11.63;76.87;100789.66;5046921;28;20454;-68
2024/02/09 10:49:14;;;;;;;21.88;7.43;;;;;;;-11.71;76.90;100774.38;5035717;28;20045;-71
2024/02/09 10:51:41;;;;;;;9.30;6.13;;;;;;;-11.73;77.21;100781.25;5047852;28;20381;-68
2024/02/09 10:54:08;;;;;;;12.80;6.22;;;;;;;-11.73;77.36;100783.81;5047589;28;20036;-70
2024/02/09 10:56:36;;;;;;;11.13;7.05;;;;;;;-11.74;77.18;100774.44;5041328;28;20093;-68
2024/02/09 10:59:05;;;;;;;11.82;8.00;;;;;;;-11.82;77.93;100749.75;5033437;28;20033;-71
2024/02/09 11:01:33;;;;;;;12.80;6.53;;;;;;;-11.66;77.20;100777.72;5037182;28;20053;-68
2024/02/09 11:04:02;;;;;;;9.32;7.05;;;;;;;-11.72;77.12;100782.97;5040301;28;20411;-71
2024/02/09 11:06:28;;;;;;;10.38;6.68;;;;;;;-12.18;77.73;100704.91;5045753;28;20171;-68
2024/02/09 11:08:56;;;;;;;8.60;6.75;;;;;;;-11.74;77.65;100789.00;5038305;28;20046;-69
2024/02/09 11:11:27;;;;;;;16.13;7.70;;;;;;;-12.34;77.99;100694.03;5042193;28;20037;-71
2024/02/09 11:14:10;;;;;;;15.52;7.20;;;;;;;-11.72;78.92;100782.09;5017954;28;20044;-69
2024/02/09 11:16:43;;;;;;;10.65;6.22;;;;;;;-11.58;78.35;100781.00;5034121;28;20040;-70
2024/02/09 11:19:27;;;;;;;11.18;6.50;;;;;;;-11.48;78.62;100778.31;5042881;28;20577;-71
2024/02/09 11:21:57;;;;;;;17.98;6.50;;;;;;;-11.37;78.01;100784.13;5047695;28;20046;-71
2024/02/09 11:24:26;;;;;;;11.68;6.97;;;;;;;-11.55;78.21;100735.63;5057126;28;20505;-70
2024/02/09 11:26:53;;;;;;;11.98;7.10;;;;;;;-11.18;77.31;100782.97;5047725;28;20047;-67
2024/02/09 11:29:19;;;;;;;17.25;6.63;;;;;;;-11.23;76.17;100765.94;5044500;28;20040;-71
2024/02/09 11:31:53;;;;;;;15.80;7.82;;;;;;;-11.37;77.23;100748.16;5045998;28;20045;-70
2024/02/09 11:34:26;;;;;;;13.05;6.78;;;;;;;-11.26;76.53;100774.53;5050717;28;20033;-71
2024/02/09 11:36:52;;;;;;;15.68;7.22;;;;;;;-11.15;77.14;100790.63;5040608;28;20482;-71
2024/02/09 11:39:22;;;;;;;15.82;7.57;;;;;;;-11.19;76.91;100781.28;5043122;28;20045;-69
2024/02/09 11:41:48;;;;;;;10.88;6.25;;;;;;;-11.29;77.13;100766.84;5043295;28;20135;-70
2024/02/09 11:44:14;;;;;;;12.65;6.68;;;;;;;-11.14;76.57;100792.31;5048029;28;20148;-72
2024/02/09 11:46:43;;;;;;;15.53;6.53;;;;;;;-11.26;76.30;100774.53;5037806;28;20438;-70
2024/02/09 11:49:11;;;;;;;10.68;6.30;;;;;;;-11.28;76.13;100773.69;5037098;28;20471;-72
2024/02/09 11:51:37;;;;;;;14.25;7.13;;;;;;;-11.29;76.03;100769.41;5047510;28;20115;-69
2024/02/09 11:54:08;;;;;;;12.20;6.10;;;;;;;-11.20;75.90;100783.88;5040742;28;20045;-68
2024/02/09 11:56:35;;;;;;;13.57;6.25;;;;;;;-11.28;76.34;100773.69;5050735;28;20041;-73
2024/02/09 11:59:04;;;;;;;6.63;5.20;;;;;;;-11.43;75.88;100743.13;5043224;28;20089;-70
2024/02/09 12:01:31;;;;;;;10.80;6.22;;;;;;;-11.22;75.64;100773.63;5040913;28;20240;-72
2024/02/09 12:03:57;;;;;;;8.02;6.00;;;;;;;-11.49;75.04;100753.50;5048113;28;20086;-69
2024/02/09 12:06:29;;;;;;;21.05;6.55;;;;;;;-11.49;75.82;100780.03;5040517;28;20056;-68
2024/02/09 12:08:56;;;;;;;13.52;6.70;;;;;;;-11.53;76.14;100768.13;5042383;28;20118;-71
2024/02/09 12:11:22;;;;;;;11.60;6.68;;;;;;;-11.97;76.04;100702.88;5040653;28;20033;-68
2024/02/09 12:13:50;;;;;;;9.88;6.55;;;;;;;-11.35;76.09;100787.53;5039054;28;20392;-69
2024/02/09 12:16:16;;;;;;;8.05;5.65;;;;;;;-11.38;75.89;100761.88;5045882;28;20037;-68
2024/02/09 12:18:48;;;;;;;9.45;6.45;;;;;;;-11.21;75.64;100788.16;5043525;28;20047;-69
2024/02/09 12:21:15;;;;;;;9.95;5.70;;;;;;;-11.05;75.37;100799.03;5018931;28;20050;-67
2024/02/09 12:23:41;;;;;;;13.48;5.97;;;;;;;-11.08;74.71;100775.94;5020267;28;20105;-68
2024/02/09 12:26:08;;;;;;;13.57;6.83;;;;;;;-11.21;74.08;100777.03;5018361;28;20136;-70
2024/02/09 12:28:38;;;;;;;16.83;7.20;;;;;;;-11.21;75.27;100788.16;5027929;28;20440;-69
2024/02/09 12:31:06;;;;;;;16.70;7.22;;;;;;;-11.38;75.41;100767.88;5026931;28;20049;-67
2024/02/09 12:33:35;;;;;;;12.80;7.47;;;;;;;-11.48;76.53;100771.47;5027158;28;20120;-69
2024/02/09 12:36:05;;;;;;;8.73;6.25;;;;;;;-11.20;76.94;100807.00;5027874;28;20037;-71
2024/02/09 12:38:31;;;;;;;14.93;6.82;;;;;;;-11.47;76.75;100762.03;5029240;28;20386;-70
2024/02/09 12:40:57;;;;;;;19.23;9.30;;;;;;;-11.53;76.77;100754.44;5027964;28;20060;-72
2024/02/09 12:43:23;;;;;;;8.43;6.03;;;;;;;-11.36;76.90;100799.53;5019089;28;20037;-70
2024/02/09 12:45:48;;;;;;;9.63;5.30;;;;;;;-11.41;77.13;100798.75;5025616;28;20489;-72
2024/02/09 12:48:17;;;;;;;11.17;6.63;;;;;;;-11.36;76.79;100814.09;5030395;28;20107;-73
2024/02/09 12:50:43;;;;;;;7.53;6.13;;;;;;;-11.43;76.93;100804.78;5028430;28;20049;-72
2024/02/09 12:53:08;;;;;;;9.73;6.80;;;;;;;-11.57;76.32;100813.53;5030638;28;20033;-71
2024/02/09 12:55:34;;;;;;;11.53;6.70;;;;;;;-11.53;78.08;100827.22;5028103;28;20045;-72